createdAt,value
2023-12-10T00:01:04.295Z,10.90
2023-12-10T00:03:32.888Z,9.82
2023-12-10T00:06:07.227Z,16.52
2023-12-10T00:08:40.602Z,15.40
2023-12-10T00:11:07.454Z,14.68
2023-12-10T00:13:34.229Z,15.57
2023-12-10T00:16:01.082Z,13.15
2023-12-10T00:18:28.092Z,11.00
2023-12-10T00:20:56.388Z,15.10
2023-12-10T00:23:23.209Z,11.52
2023-12-10T00:25:49.956Z,14.30
2023-12-10T00:28:16.732Z,13.73
2023-12-10T00:30:44.145Z,11.70
2023-12-10T00:33:11.158Z,17.75
2023-12-10T00:35:38.058Z,17.58
2023-12-10T00:38:06.264Z,11.57
2023-12-10T00:40:33.051Z,10.98
2023-12-10T00:42:59.877Z,14.95
2023-12-10T00:45:26.807Z,13.70
2023-12-10T00:47:53.720Z,14.70
2023-12-10T00:50:20.626Z,12.88
2023-12-10T00:52:47.550Z,9.48
2023-12-10T00:55:15.776Z,6.50
2023-12-10T00:57:42.582Z,12.10
2023-12-10T01:00:13.600Z,12.10
2023-12-10T01:02:40.931Z,10.80
2023-12-10T01:05:08.546Z,16.23
2023-12-10T01:07:35.358Z,15.40
2023-12-10T01:10:02.218Z,14.57
2023-12-10T01:12:30.684Z,12.18
2023-12-10T01:14:57.908Z,12.85
2023-12-10T01:17:24.709Z,13.60
2023-12-10T01:19:51.552Z,20.55
2023-12-10T01:22:18.408Z,14.30
2023-12-10T01:24:45.257Z,15.07
2023-12-10T01:27:12.108Z,15.63
2023-12-10T01:29:40.418Z,15.70
2023-12-10T01:32:07.294Z,16.42
2023-12-10T01:34:34.398Z,11.50
2023-12-10T01:37:01.810Z,11.50
2023-12-10T01:39:28.636Z,12.57
2023-12-10T01:41:55.493Z,13.85
2023-12-10T01:44:22.357Z,14.35
2023-12-10T01:46:50.550Z,12.13
2023-12-10T01:49:17.380Z,10.52
2023-12-10T01:51:44.548Z,7.18
2023-12-10T01:54:11.722Z,9.18
2023-12-10T01:56:39.626Z,7.43
2023-12-10T01:59:09.331Z,11.38
2023-12-10T02:01:36.206Z,8.20
2023-12-10T02:04:04.805Z,9.18
2023-12-10T02:06:31.668Z,10.63
2023-12-10T02:08:58.528Z,10.30
2023-12-10T02:11:25.367Z,14.43
2023-12-10T02:13:52.197Z,6.57
2023-12-10T02:16:18.960Z,10.80
2023-12-10T02:18:45.903Z,7.55
2023-12-10T02:21:14.302Z,11.43
2023-12-10T02:23:48.112Z,11.98
2023-12-10T02:26:16.350Z,6.43
2023-12-10T02:28:43.130Z,10.15
2023-12-10T02:31:10.014Z,12.27
2023-12-10T02:33:36.926Z,10.73
2023-12-10T02:36:04.463Z,15.40
2023-12-10T02:38:31.263Z,11.77
2023-12-10T02:40:58.121Z,11.20
2023-12-10T02:43:26.364Z,16.45
2023-12-10T02:45:53.198Z,11.57
2023-12-10T02:48:20.116Z,14.88
2023-12-10T02:50:47.013Z,12.00
2023-12-10T02:53:13.795Z,12.15
2023-12-10T02:55:40.618Z,17.65
2023-12-10T02:58:07.412Z,17.95
2023-12-10T03:00:35.769Z,16.35
2023-12-10T03:03:02.689Z,10.98
2023-12-10T03:05:29.533Z,17.15
2023-12-10T03:07:56.334Z,14.18
2023-12-10T03:10:23.149Z,13.93
2023-12-10T03:12:49.982Z,18.73
2023-12-10T03:15:16.946Z,12.15
2023-12-10T03:17:45.399Z,19.08
2023-12-10T03:20:12.316Z,10.73
2023-12-10T03:22:39.156Z,19.02
2023-12-10T03:25:07.074Z,12.18
2023-12-10T03:27:33.944Z,11.15
2023-12-10T03:30:00.730Z,13.43
2023-12-10T03:32:27.902Z,14.10
2023-12-10T03:34:56.410Z,12.80
2023-12-10T03:37:23.283Z,19.08
2023-12-10T03:39:50.262Z,16.48
2023-12-10T03:42:17.029Z,10.40
2023-12-10T03:44:43.899Z,14.82
2023-12-10T03:47:10.694Z,13.63
2023-12-10T03:49:37.586Z,17.83
2023-12-10T03:52:06.572Z,10.02
2023-12-10T03:54:33.880Z,14.82
2023-12-10T03:57:00.896Z,14.70
2023-12-10T03:59:27.828Z,17.50
2023-12-10T04:01:54.741Z,20.83
2023-12-10T04:04:21.574Z,20.42
2023-12-10T04:06:48.492Z,20.00
2023-12-10T04:09:16.750Z,17.60
2023-12-10T04:11:43.559Z,16.25
2023-12-10T04:14:10.428Z,18.85
2023-12-10T04:16:37.456Z,12.32
2023-12-10T04:19:04.386Z,17.55
2023-12-10T04:21:31.206Z,17.92
2023-12-10T04:23:58.028Z,17.23
2023-12-10T04:26:26.242Z,22.10
2023-12-10T04:28:52.998Z,20.35
2023-12-10T04:31:20.136Z,19.10
2023-12-10T04:33:47.004Z,16.23
2023-12-10T04:36:13.848Z,13.35
2023-12-10T04:38:40.794Z,21.42
2023-12-10T04:41:07.576Z,13.38
2023-12-10T04:43:35.900Z,22.35
2023-12-10T04:46:02.691Z,15.48
2023-12-10T04:48:29.558Z,16.92
2023-12-10T04:50:56.400Z,16.88
2023-12-10T04:53:23.201Z,16.15
2023-12-10T04:55:49.957Z,15.77
2023-12-10T04:58:16.822Z,18.02
2023-12-10T05:00:45.706Z,10.23
2023-12-10T05:03:12.785Z,17.65
2023-12-10T05:05:39.711Z,12.32
2023-12-10T05:08:06.578Z,13.73
2023-12-10T05:10:33.333Z,12.45
2023-12-10T05:13:00.218Z,12.90
2023-12-10T05:15:27.153Z,12.65
2023-12-10T05:17:55.487Z,13.85
2023-12-10T05:20:22.323Z,15.40
2023-12-10T05:22:49.361Z,15.60
2023-12-10T05:25:16.165Z,10.88
2023-12-10T05:27:42.932Z,10.73
2023-12-10T05:30:10.458Z,8.07
2023-12-10T05:32:37.245Z,15.18
2023-12-10T05:35:06.300Z,15.32
2023-12-10T05:37:33.150Z,13.98
2023-12-10T05:39:59.978Z,10.10
2023-12-10T05:42:27.017Z,9.02
2023-12-10T05:44:54.032Z,13.43
2023-12-10T05:47:20.823Z,13.18
2023-12-10T05:49:47.718Z,12.75
2023-12-10T05:52:16.018Z,12.63
2023-12-10T05:54:42.827Z,14.52
2023-12-10T05:57:09.739Z,14.50
2023-12-10T05:59:36.547Z,16.13
2023-12-10T06:02:03.490Z,11.60
2023-12-10T06:04:30.379Z,13.48
2023-12-10T06:06:57.233Z,13.15
2023-12-10T06:09:25.456Z,11.20
2023-12-10T06:11:52.250Z,13.68
2023-12-10T06:14:19.003Z,11.63
2023-12-10T06:16:45.796Z,11.02
2023-12-10T06:19:12.629Z,11.15
2023-12-10T06:21:39.454Z,12.00
2023-12-10T06:24:06.397Z,12.20
2023-12-10T06:26:34.601Z,13.07
2023-12-10T06:29:01.452Z,11.23
2023-12-10T06:31:28.222Z,11.23
2023-12-10T06:33:55.167Z,10.07
2023-12-10T06:36:22.082Z,7.50
2023-12-10T06:38:48.878Z,10.98
2023-12-10T06:41:15.640Z,10.52
2023-12-10T06:43:44.409Z,10.05
2023-12-10T06:46:11.212Z,12.93
2023-12-10T06:48:38.175Z,8.27
2023-12-10T06:51:05.392Z,12.57
2023-12-10T06:53:32.164Z,13.73
2023-12-10T06:55:59.110Z,13.35
2023-12-10T06:58:25.876Z,12.55
2023-12-10T07:00:54.228Z,14.18
2023-12-10T07:03:21.182Z,14.77
2023-12-10T07:05:48.073Z,13.23
2023-12-10T07:08:14.911Z,15.32
2023-12-10T07:10:41.747Z,16.00
2023-12-10T07:13:08.642Z,17.40
2023-12-10T07:15:35.539Z,19.00
2023-12-10T07:18:04.332Z,15.90
2023-12-10T07:20:31.192Z,15.68
2023-12-10T07:22:57.970Z,15.52
2023-12-10T07:25:24.747Z,14.48
2023-12-10T07:27:51.591Z,17.92
2023-12-10T07:30:18.641Z,12.63
2023-12-10T07:32:45.519Z,12.32
2023-12-10T07:35:13.929Z,14.68
2023-12-10T07:37:40.754Z,17.23
2023-12-10T07:40:08.424Z,16.70
2023-12-10T07:42:35.239Z,33.92
2023-12-10T07:45:02.154Z,61.85
2023-12-10T07:47:28.985Z,32.72
2023-12-10T07:49:55.920Z,36.15
2023-12-10T07:52:24.142Z,30.40
2023-12-10T07:54:50.950Z,27.48
2023-12-10T07:57:17.825Z,34.80
2023-12-10T07:59:44.606Z,23.35
2023-12-10T08:02:11.498Z,25.38
2023-12-10T08:04:38.376Z,18.35
2023-12-10T08:07:05.395Z,37.40
2023-12-10T08:09:33.741Z,38.95
2023-12-10T08:12:00.543Z,45.15
2023-12-10T08:14:28.866Z,31.45
2023-12-10T08:16:55.782Z,29.13
2023-12-10T08:19:22.663Z,23.92
2023-12-10T08:21:49.501Z,25.00
2023-12-10T08:24:16.321Z,15.63
2023-12-10T08:26:44.655Z,25.13
2023-12-10T08:29:11.465Z,32.55
2023-12-10T08:31:38.290Z,27.05
2023-12-10T08:34:05.239Z,33.50
2023-12-10T08:36:32.160Z,33.30
2023-12-10T08:38:58.944Z,24.75
2023-12-10T08:41:25.850Z,21.17
2023-12-10T08:43:54.073Z,32.15
2023-12-10T08:46:20.899Z,35.05
2023-12-10T08:48:47.979Z,36.33
2023-12-10T08:51:14.939Z,35.08
2023-12-10T08:53:41.761Z,44.65
2023-12-10T08:56:09.129Z,62.53
2023-12-10T08:58:35.943Z,50.95
2023-12-10T09:01:04.574Z,34.55
2023-12-10T09:03:31.555Z,20.67
2023-12-10T09:05:58.426Z,18.58
2023-12-10T09:08:25.243Z,21.55
2023-12-10T09:10:52.053Z,31.55
2023-12-10T09:13:18.955Z,23.85
2023-12-10T09:15:46.054Z,23.95
2023-12-10T09:18:14.398Z,18.42
2023-12-10T09:20:42.698Z,21.55
2023-12-10T09:23:09.438Z,23.63
2023-12-10T09:25:36.389Z,20.38
2023-12-10T09:28:06.215Z,21.52
2023-12-10T09:30:34.505Z,27.17
2023-12-10T09:33:01.378Z,19.45
2023-12-10T09:35:29.617Z,19.65
2023-12-10T09:37:56.529Z,22.83
2023-12-10T09:40:23.566Z,21.67
2023-12-10T09:42:50.348Z,21.17
2023-12-10T09:45:17.167Z,17.45
2023-12-10T09:47:44.983Z,22.67
2023-12-10T09:50:11.816Z,22.00
2023-12-10T09:52:40.134Z,21.73
2023-12-10T09:55:07.641Z,25.52
2023-12-10T09:57:34.623Z,22.42
2023-12-10T10:00:01.567Z,21.30
2023-12-10T10:02:31.814Z,22.30
2023-12-10T10:04:58.676Z,19.88
2023-12-10T10:07:25.524Z,21.20
2023-12-10T10:09:53.780Z,38.70
2023-12-10T10:12:20.559Z,39.22
2023-12-10T10:14:54.593Z,44.70
2023-12-10T10:17:26.774Z,20.52
2023-12-10T10:19:54.373Z,80.40
2023-12-10T10:22:21.585Z,47.85
2023-12-10T10:24:48.491Z,23.30
2023-12-10T10:27:17.341Z,24.48
2023-12-10T10:29:44.097Z,20.70
2023-12-10T10:32:11.111Z,21.48
2023-12-10T10:34:38.073Z,21.05
2023-12-10T10:37:05.221Z,20.48
2023-12-10T10:39:32.115Z,22.77
2023-12-10T10:41:58.967Z,32.78
2023-12-10T10:44:27.196Z,18.67
2023-12-10T10:46:54.022Z,25.10
2023-12-10T10:49:21.173Z,23.17
2023-12-10T10:51:48.153Z,23.20
2023-12-10T10:54:14.922Z,39.55
2023-12-10T10:56:41.689Z,23.60
2023-12-10T10:59:30.318Z,40.90
2023-12-10T11:01:58.712Z,23.25
2023-12-10T11:04:25.724Z,21.00
2023-12-10T11:06:52.744Z,32.03
2023-12-10T11:09:19.670Z,51.92
2023-12-10T11:11:46.456Z,40.95
2023-12-10T11:14:19.802Z,19.35
2023-12-10T11:16:50.606Z,20.92
2023-12-10T11:19:17.831Z,35.83
2023-12-10T11:21:44.826Z,30.00
2023-12-10T11:24:11.633Z,30.10
2023-12-10T11:26:38.432Z,61.17
2023-12-10T11:29:05.217Z,43.42
2023-12-10T11:31:31.992Z,29.17
2023-12-10T11:34:00.338Z,20.10
2023-12-10T11:36:36.413Z,43.67
2023-12-10T11:39:05.024Z,19.63
2023-12-10T11:41:31.831Z,44.00
2023-12-10T11:43:58.663Z,49.10
2023-12-10T11:46:34.341Z,46.15
2023-12-10T11:49:08.301Z,20.10
2023-12-10T11:51:35.526Z,27.60
2023-12-10T11:54:02.315Z,20.13
2023-12-10T11:56:29.249Z,18.00
2023-12-10T11:58:56.079Z,17.42
2023-12-10T12:01:23.059Z,21.30
2023-12-10T12:03:50.016Z,14.18
2023-12-10T12:06:18.263Z,21.73
2023-12-10T12:08:45.179Z,28.27
2023-12-10T12:11:13.927Z,19.83
2023-12-10T12:13:42.113Z,26.55
2023-12-10T12:16:09.195Z,26.10
2023-12-10T12:18:36.140Z,19.08
2023-12-10T12:21:03.211Z,16.48
2023-12-10T12:23:31.402Z,16.35
2023-12-10T12:25:58.213Z,17.20
2023-12-10T12:28:24.985Z,15.13
2023-12-10T12:30:51.907Z,15.05
2023-12-10T12:33:18.996Z,15.27
2023-12-10T12:35:45.900Z,16.75
2023-12-10T12:38:12.812Z,14.82
2023-12-10T12:40:41.058Z,20.17
2023-12-10T12:43:07.840Z,17.17
2023-12-10T12:45:34.712Z,14.18
2023-12-10T12:48:01.595Z,16.80
2023-12-10T12:50:28.436Z,32.58
2023-12-10T12:52:55.214Z,18.42
2023-12-10T12:55:21.981Z,34.55
2023-12-10T12:57:50.215Z,38.20
2023-12-10T13:00:17.603Z,25.23
2023-12-10T13:02:44.526Z,36.60
2023-12-10T13:05:11.636Z,25.27
2023-12-10T13:07:38.431Z,33.22
2023-12-10T13:10:06.631Z,31.05
2023-12-10T13:12:33.450Z,23.80
2023-12-10T13:15:01.698Z,18.02
2023-12-10T13:17:28.786Z,21.45
2023-12-10T13:19:55.765Z,38.95
2023-12-10T13:22:22.596Z,44.67
2023-12-10T13:24:49.399Z,24.42
2023-12-10T13:27:16.161Z,67.65
2023-12-10T13:29:42.961Z,37.25
2023-12-10T13:32:11.124Z,72.85
2023-12-10T13:34:37.950Z,70.28
2023-12-10T13:37:04.967Z,44.47
2023-12-10T13:39:31.914Z,61.65
2023-12-10T13:41:58.894Z,58.28
2023-12-10T13:44:25.671Z,35.65
2023-12-10T13:46:52.491Z,35.20
2023-12-10T13:49:20.769Z,31.70
2023-12-10T13:51:47.647Z,25.65
2023-12-10T13:54:14.687Z,32.92
2023-12-10T13:56:41.496Z,27.00
2023-12-10T13:59:08.287Z,25.73
2023-12-10T14:01:35.189Z,30.15
2023-12-10T14:04:02.828Z,31.60
2023-12-10T14:06:31.088Z,26.50
2023-12-10T14:08:58.020Z,53.58
2023-12-10T14:11:31.202Z,36.45
2023-12-10T14:14:01.919Z,34.50
2023-12-10T14:16:28.700Z,49.55
2023-12-10T14:18:55.615Z,35.40
2023-12-10T14:21:31.681Z,30.65
2023-12-10T14:24:01.160Z,34.53
2023-12-10T14:26:27.966Z,24.10
2023-12-10T14:28:54.962Z,23.45
2023-12-10T14:31:24.539Z,38.78
2023-12-10T14:33:53.220Z,64.45
2023-12-10T14:36:20.097Z,37.65
2023-12-10T14:38:46.930Z,32.65
2023-12-10T14:41:15.131Z,33.28
2023-12-10T14:43:41.939Z,29.17
2023-12-10T14:46:08.883Z,39.47
2023-12-10T14:48:36.002Z,31.15
2023-12-10T14:51:03.071Z,31.77
2023-12-10T14:53:29.912Z,29.70
2023-12-10T14:55:56.785Z,28.40
2023-12-10T14:58:24.948Z,44.80
2023-12-10T15:00:51.921Z,36.10
2023-12-10T15:03:18.906Z,31.95
2023-12-10T15:05:45.761Z,53.83
2023-12-10T15:08:12.707Z,99.55
2023-12-10T15:10:39.709Z,74.47
2023-12-10T15:13:06.598Z,85.20
2023-12-10T15:15:34.926Z,63.47
2023-12-10T15:18:01.850Z,46.88
2023-12-10T15:20:28.892Z,44.03
2023-12-10T15:22:55.679Z,39.30
2023-12-10T15:25:22.445Z,40.40
2023-12-10T15:27:49.260Z,41.55
2023-12-10T15:30:16.077Z,53.95
2023-12-10T15:32:44.418Z,43.65
2023-12-10T15:35:11.297Z,76.75
2023-12-10T15:37:38.084Z,55.50
2023-12-10T15:40:05.876Z,55.03
2023-12-10T15:42:32.710Z,48.17
2023-12-10T15:44:59.530Z,51.38
2023-12-10T15:47:26.510Z,50.00
2023-12-10T15:49:54.959Z,61.20
2023-12-10T15:52:26.456Z,57.22
2023-12-10T15:54:57.498Z,66.53
2023-12-10T15:57:24.400Z,64.50
2023-12-10T15:59:51.182Z,66.50
2023-12-10T16:02:18.467Z,56.08
2023-12-10T16:04:45.278Z,58.13
2023-12-10T16:07:16.596Z,54.30
2023-12-10T16:09:44.590Z,57.40
2023-12-10T16:12:11.450Z,55.33
2023-12-10T16:14:38.277Z,63.60
2023-12-10T16:17:05.194Z,51.83
2023-12-10T16:19:32.017Z,57.83
2023-12-10T16:21:58.901Z,47.70
2023-12-10T16:24:27.189Z,52.35
2023-12-10T16:26:54.010Z,45.10
2023-12-10T16:29:20.808Z,49.38
2023-12-10T16:31:47.639Z,57.20
2023-12-10T16:34:14.502Z,57.00
2023-12-10T16:36:41.359Z,53.80
2023-12-10T16:39:08.183Z,51.55
2023-12-10T16:41:36.392Z,47.30
2023-12-10T16:44:03.341Z,40.28
2023-12-10T16:46:35.521Z,42.28
2023-12-10T16:49:02.427Z,34.00
2023-12-10T16:51:29.320Z,35.78
2023-12-10T16:53:56.105Z,37.13
2023-12-10T16:56:22.913Z,35.92
2023-12-10T16:58:51.215Z,54.28
2023-12-10T17:01:18.045Z,46.05
2023-12-10T17:03:45.071Z,60.10
2023-12-10T17:06:11.877Z,69.45
2023-12-10T17:08:38.723Z,49.97
2023-12-10T17:11:05.522Z,44.67
2023-12-10T17:13:32.392Z,56.22
2023-12-10T17:16:00.758Z,48.97
2023-12-10T17:18:27.727Z,49.30
2023-12-10T17:20:54.569Z,45.10
2023-12-10T17:23:21.527Z,51.78
2023-12-10T17:25:48.603Z,49.20
2023-12-10T17:28:15.463Z,46.15
2023-12-10T17:30:42.487Z,43.90
2023-12-10T17:33:10.787Z,45.85
2023-12-10T17:35:37.722Z,48.97
2023-12-10T17:38:04.552Z,43.80
2023-12-10T17:40:31.326Z,69.32
2023-12-10T17:42:58.157Z,50.83
2023-12-10T17:45:25.042Z,52.88
2023-12-10T17:47:51.852Z,45.33
2023-12-10T17:50:20.126Z,37.22
2023-12-10T17:52:46.966Z,42.83
2023-12-10T17:55:13.824Z,40.13
2023-12-10T17:57:40.653Z,42.80
2023-12-10T18:00:08.581Z,44.75
2023-12-10T18:02:35.401Z,42.15
2023-12-10T18:05:02.306Z,39.08
2023-12-10T18:07:30.663Z,58.63
2023-12-10T18:09:57.611Z,49.33
2023-12-10T18:12:24.624Z,56.88
2023-12-10T18:14:51.462Z,51.20
2023-12-10T18:17:18.257Z,48.28
2023-12-10T18:19:47.961Z,48.03
2023-12-10T18:22:14.961Z,49.88
2023-12-10T18:24:43.223Z,46.75
2023-12-10T18:27:10.039Z,51.08
2023-12-10T18:29:36.931Z,49.28
2023-12-10T18:32:04.206Z,53.55
2023-12-10T18:34:31.124Z,58.67
2023-12-10T18:36:58.064Z,73.75
2023-12-10T18:39:24.867Z,56.58
2023-12-10T18:41:53.103Z,56.03
2023-12-10T18:44:19.947Z,44.25
2023-12-10T18:46:49.058Z,31.77
2023-12-10T18:49:15.953Z,67.80
2023-12-10T18:51:42.975Z,40.65
2023-12-10T18:54:09.736Z,45.75
2023-12-10T18:56:36.554Z,58.08
2023-12-10T18:59:04.770Z,53.22
2023-12-10T19:01:31.612Z,46.60
2023-12-10T19:03:58.397Z,41.00
2023-12-10T19:06:25.277Z,35.05
2023-12-10T19:08:52.131Z,39.22
2023-12-10T19:11:18.934Z,41.70
2023-12-10T19:13:45.754Z,42.97
2023-12-10T19:16:14.003Z,30.77
2023-12-10T19:18:42.718Z,23.55
2023-12-10T19:21:09.561Z,26.45
2023-12-10T19:23:36.368Z,27.80
2023-12-10T19:26:03.405Z,28.05
2023-12-10T19:28:30.209Z,21.00
2023-12-10T19:30:57.090Z,20.73
2023-12-10T19:33:25.498Z,22.55
2023-12-10T19:35:52.545Z,24.42
2023-12-10T19:38:19.313Z,35.90
2023-12-10T19:40:46.099Z,90.72
2023-12-10T19:43:12.973Z,55.13
2023-12-10T19:45:39.771Z,30.95
2023-12-10T19:48:06.674Z,44.42
2023-12-10T19:50:34.977Z,38.63
2023-12-10T19:53:01.763Z,39.13
2023-12-10T19:55:28.577Z,31.42
2023-12-10T19:57:55.406Z,25.63
2023-12-10T20:00:25.495Z,35.45
2023-12-10T20:02:52.354Z,32.50
2023-12-10T20:05:19.360Z,36.33
2023-12-10T20:07:47.612Z,32.55
2023-12-10T20:10:15.820Z,37.05
2023-12-10T20:12:42.721Z,34.58
2023-12-10T20:15:10.495Z,30.40
2023-12-10T20:17:39.297Z,25.50
2023-12-10T20:20:07.356Z,24.83
2023-12-10T20:22:34.128Z,30.55
2023-12-10T20:25:03.497Z,34.60
2023-12-10T20:27:31.126Z,26.02
2023-12-10T20:30:00.762Z,24.95
2023-12-10T20:32:27.520Z,26.08
2023-12-10T20:34:57.301Z,27.00
2023-12-10T20:37:24.106Z,31.30
2023-12-10T20:39:50.966Z,32.08
2023-12-10T20:42:19.259Z,29.08
2023-12-10T20:44:46.045Z,24.08
2023-12-10T20:47:12.878Z,27.83
2023-12-10T20:49:39.783Z,26.92
2023-12-10T20:52:06.955Z,27.52
2023-12-10T20:54:33.998Z,29.83
2023-12-10T20:57:00.841Z,31.42
2023-12-10T20:59:29.027Z,32.38
2023-12-10T21:01:55.871Z,28.75
2023-12-10T21:04:22.825Z,20.30
2023-12-10T21:06:52.972Z,22.85
2023-12-10T21:09:20.347Z,18.90
2023-12-10T21:11:47.155Z,23.35
2023-12-10T21:14:13.985Z,23.35
2023-12-10T21:16:42.190Z,22.13
2023-12-10T21:19:09.056Z,22.35
2023-12-10T21:21:35.919Z,20.10
2023-12-10T21:24:02.714Z,22.83
2023-12-10T21:26:29.519Z,24.05
2023-12-10T21:28:56.292Z,25.67
2023-12-10T21:31:25.569Z,27.40
2023-12-10T21:33:54.270Z,29.60
2023-12-10T21:36:21.099Z,28.98
2023-12-10T21:38:47.874Z,20.90
2023-12-10T21:41:14.723Z,18.17
2023-12-10T21:43:41.514Z,16.52
2023-12-10T21:46:08.399Z,18.65
2023-12-10T21:48:35.461Z,26.33
2023-12-10T21:51:04.443Z,27.55
2023-12-10T21:53:31.250Z,27.55
2023-12-10T21:55:58.048Z,28.95
2023-12-10T21:58:24.813Z,20.25
2023-12-10T22:00:51.660Z,54.33
2023-12-10T22:03:18.582Z,36.08
2023-12-10T22:05:45.385Z,21.45
2023-12-10T22:08:13.600Z,21.35
2023-12-10T22:10:40.397Z,21.52
2023-12-10T22:13:07.198Z,20.52
2023-12-10T22:15:34.019Z,36.42
2023-12-10T22:18:00.929Z,26.52
2023-12-10T22:20:27.779Z,28.55
2023-12-10T22:22:54.551Z,30.55
2023-12-10T22:25:22.775Z,27.02
2023-12-10T22:27:49.575Z,24.42
2023-12-10T22:30:16.475Z,23.55
2023-12-10T22:32:43.863Z,24.73
2023-12-10T22:35:10.729Z,29.88
2023-12-10T22:37:37.543Z,31.92
2023-12-10T22:40:05.634Z,26.30
2023-12-10T22:42:33.918Z,26.92
2023-12-10T22:45:00.734Z,22.60
2023-12-10T22:47:27.711Z,24.17
2023-12-10T22:49:54.730Z,24.50
2023-12-10T22:52:21.563Z,19.58
2023-12-10T22:54:48.447Z,15.45
2023-12-10T22:57:15.295Z,22.35
2023-12-10T22:59:44.247Z,18.38
2023-12-10T23:02:11.713Z,21.23
2023-12-10T23:04:38.736Z,23.45
2023-12-10T23:07:05.615Z,24.10
2023-12-10T23:09:32.478Z,16.63
2023-12-10T23:11:59.258Z,19.10
2023-12-10T23:14:26.024Z,18.58
2023-12-10T23:16:54.424Z,17.55
2023-12-10T23:19:21.382Z,17.98
2023-12-10T23:21:48.244Z,21.92
2023-12-10T23:24:15.132Z,18.98
2023-12-10T23:26:41.945Z,19.27
2023-12-10T23:29:08.705Z,17.88
2023-12-10T23:31:35.600Z,18.92
2023-12-10T23:34:03.958Z,19.43
2023-12-10T23:36:30.800Z,17.63
2023-12-10T23:38:57.569Z,17.23
2023-12-10T23:41:24.354Z,16.85
2023-12-10T23:43:51.181Z,15.27
2023-12-10T23:46:18.005Z,20.45
2023-12-10T23:48:44.817Z,18.70
2023-12-10T23:51:19.092Z,16.80
2023-12-10T23:53:45.897Z,19.50
2023-12-10T23:56:12.647Z,19.60
2023-12-10T23:58:39.517Z,17.42
